sensor_id;sensor_type;location;lat;lon;timestamp;temperature;humidity
29403;DHT22;16382;59.942;30.472;2023-04-25T00:01:46;11.70;99.90
29403;DHT22;16382;59.942;30.472;2023-04-25T00:04:14;11.70;99.90
29403;DHT22;16382;59.942;30.472;2023-04-25T00:06:41;11.70;99.90
29403;DHT22;16382;59.942;30.472;2023-04-25T00:09:10;11.70;99.90
29403;DHT22;16382;59.942;30.472;2023-04-25T00:11:38;11.70;99.90
29403;DHT22;16382;59.942;30.472;2023-04-25T00:14:05;11.60;99.90
29403;DHT22;16382;59.942;30.472;2023-04-25T00:16:33;11.60;99.90
29403;DHT22;16382;59.942;30.472;2023-04-25T00:19:01;11.70;99.90
29403;DHT22;16382;59.942;30.472;2023-04-25T00:21:30;11.70;99.90
29403;DHT22;16382;59.942;30.472;2023-04-25T00:23:59;11.70;99.90
29403;DHT22;16382;59.942;30.472;2023-04-25T00:26:28;11.70;99.90
29403;DHT22;16382;59.942;30.472;2023-04-25T00:28:57;11.80;99.90
29403;DHT22;16382;59.942;30.472;2023-04-25T00:31:24;11.90;99.90
29403;DHT22;16382;59.942;30.472;2023-04-25T00:33:52;12.00;99.90
29403;DHT22;16382;59.942;30.472;2023-04-25T00:36:19;12.00;99.90
29403;DHT22;16382;59.942;30.472;2023-04-25T00:38:47;12.00;99.90
29403;DHT22;16382;59.942;30.472;2023-04-25T00:41:15;12.00;99.90
29403;DHT22;16382;59.942;30.472;2023-04-25T00:43:44;12.00;99.90
29403;DHT22;16382;59.942;30.472;2023-04-25T00:46:13;12.10;99.90
29403;DHT22;16382;59.942;30.472;2023-04-25T00:48:40;12.10;99.90
29403;DHT22;16382;59.942;30.472;2023-04-25T00:51:09;12.10;99.90
29403;DHT22;16382;59.942;30.472;2023-04-25T00:53:40;12.10;99.90
29403;DHT22;16382;59.942;30.472;2023-04-25T00:56:07;12.10;99.90
29403;DHT22;16382;59.942;30.472;2023-04-25T00:58:36;12.10;99.90
29403;DHT22;16382;59.942;30.472;2023-04-25T01:01:06;12.10;99.90
29403;DHT22;16382;59.942;30.472;2023-04-25T01:03:34;12.10;99.90
29403;DHT22;16382;59.942;30.472;2023-04-25T01:06:07;12.00;99.90
29403;DHT22;16382;59.942;30.472;2023-04-25T01:08:38;12.00;99.90
29403;DHT22;16382;59.942;30.472;2023-04-25T01:11:05;12.00;99.90
29403;DHT22;16382;59.942;30.472;2023-04-25T01:13:34;12.00;99.90
29403;DHT22;16382;59.942;30.472;2023-04-25T01:16:03;12.00;99.90
29403;DHT22;16382;59.942;30.472;2023-04-25T01:18:35;12.00;99.90
29403;DHT22;16382;59.942;30.472;2023-04-25T01:21:08;11.90;99.90
29403;DHT22;16382;59.942;30.472;2023-04-25T01:23:40;11.90;99.90
29403;DHT22;16382;59.942;30.472;2023-04-25T01:26:09;11.90;99.90
29403;DHT22;16382;59.942;30.472;2023-04-25T01:28:38;11.90;99.90
29403;DHT22;16382;59.942;30.472;2023-04-25T01:31:08;11.80;99.90
29403;DHT22;16382;59.942;30.472;2023-04-25T01:33:36;11.80;99.90
29403;DHT22;16382;59.942;30.472;2023-04-25T01:36:09;11.80;99.90
29403;DHT22;16382;59.942;30.472;2023-04-25T01:38:36;11.70;99.90
29403;DHT22;16382;59.942;30.472;2023-04-25T01:41:05;11.70;99.90
29403;DHT22;16382;59.942;30.472;2023-04-25T01:43:33;11.70;99.90
29403;DHT22;16382;59.942;30.472;2023-04-25T01:46:01;11.70;99.90
29403;DHT22;16382;59.942;30.472;2023-04-25T01:48:29;11.70;99.90
29403;DHT22;16382;59.942;30.472;2023-04-25T01:50:56;11.70;99.90
29403;DHT22;16382;59.942;30.472;2023-04-25T01:53:26;11.60;99.90
29403;DHT22;16382;59.942;30.472;2023-04-25T01:55:54;11.70;99.90
29403;DHT22;16382;59.942;30.472;2023-04-25T01:58:23;11.70;99.90
29403;DHT22;16382;59.942;30.472;2023-04-25T02:01:09;11.70;99.90
29403;DHT22;16382;59.942;30.472;2023-04-25T02:03:43;11.70;99.90
29403;DHT22;16382;59.942;30.472;2023-04-25T02:06:20;11.70;99.90
29403;DHT22;16382;59.942;30.472;2023-04-25T02:08:50;11.70;99.90
29403;DHT22;16382;59.942;30.472;2023-04-25T02:11:17;11.70;99.90
29403;DHT22;16382;59.942;30.472;2023-04-25T02:13:53;11.60;99.90
29403;DHT22;16382;59.942;30.472;2023-04-25T02:16:37;11.60;99.90
29403;DHT22;16382;59.942;30.472;2023-04-25T02:19:07;11.60;99.90
29403;DHT22;16382;59.942;30.472;2023-04-25T02:21:34;11.60;99.90
29403;DHT22;16382;59.942;30.472;2023-04-25T02:24:04;11.50;99.90
29403;DHT22;16382;59.942;30.472;2023-04-25T02:26:33;11.50;99.90
29403;DHT22;16382;59.942;30.472;2023-04-25T02:29:01;11.50;99.90
29403;DHT22;16382;59.942;30.472;2023-04-25T02:31:28;11.50;99.90
29403;DHT22;16382;59.942;30.472;2023-04-25T02:33:57;11.50;99.90
29403;DHT22;16382;59.942;30.472;2023-04-25T02:36:26;11.50;99.90
29403;DHT22;16382;59.942;30.472;2023-04-25T02:38:56;11.50;99.90
29403;DHT22;16382;59.942;30.472;2023-04-25T02:41:25;11.50;99.90
29403;DHT22;16382;59.942;30.472;2023-04-25T02:43:55;11.50;99.90
29403;DHT22;16382;59.942;30.472;2023-04-25T02:46:25;11.50;99.90
29403;DHT22;16382;59.942;30.472;2023-04-25T02:48:53;11.50;99.90
29403;DHT22;16382;59.942;30.472;2023-04-25T02:51:20;11.50;99.90
29403;DHT22;16382;59.942;30.472;2023-04-25T02:53:47;11.50;99.90
29403;DHT22;16382;59.942;30.472;2023-04-25T02:56:15;11.50;99.90
29403;DHT22;16382;59.942;30.472;2023-04-25T02:58:44;11.60;99.90
29403;DHT22;16382;59.942;30.472;2023-04-25T03:01:12;11.60;99.90
29403;DHT22;16382;59.942;30.472;2023-04-25T03:03:39;11.60;99.90
29403;DHT22;16382;59.942;30.472;2023-04-25T03:06:07;11.70;99.90
29403;DHT22;16382;59.942;30.472;2023-04-25T03:08:34;11.70;99.90
29403;DHT22;16382;59.942;30.472;2023-04-25T03:11:02;11.70;99.90
29403;DHT22;16382;59.942;30.472;2023-04-25T03:13:30;11.70;99.90
29403;DHT22;16382;59.942;30.472;2023-04-25T03:16:00;11.80;99.90
29403;DHT22;16382;59.942;30.472;2023-04-25T03:18:29;11.80;99.90
29403;DHT22;16382;59.942;30.472;2023-04-25T03:20:57;11.80;99.90
29403;DHT22;16382;59.942;30.472;2023-04-25T03:23:25;11.90;99.90
29403;DHT22;16382;59.942;30.472;2023-04-25T03:25:52;11.90;99.90
29403;DHT22;16382;59.942;30.472;2023-04-25T03:28:20;11.90;99.90
29403;DHT22;16382;59.942;30.472;2023-04-25T03:30:47;11.90;99.90
29403;DHT22;16382;59.942;30.472;2023-04-25T03:33:16;12.00;99.90
29403;DHT22;16382;59.942;30.472;2023-04-25T03:35:44;12.10;99.90
29403;DHT22;16382;59.942;30.472;2023-04-25T03:38:14;12.10;99.90
29403;DHT22;16382;59.942;30.472;2023-04-25T03:40:41;12.20;99.90
29403;DHT22;16382;59.942;30.472;2023-04-25T03:43:32;12.20;99.90
29403;DHT22;16382;59.942;30.472;2023-04-25T03:46:05;12.30;99.90
29403;DHT22;16382;59.942;30.472;2023-04-25T03:48:33;12.40;99.90
29403;DHT22;16382;59.942;30.472;2023-04-25T03:51:01;12.40;99.90
29403;DHT22;16382;59.942;30.472;2023-04-25T03:53:31;12.50;99.90
29403;DHT22;16382;59.942;30.472;2023-04-25T03:56:27;12.60;99.90
29403;DHT22;16382;59.942;30.472;2023-04-25T03:59:02;12.70;99.90
29403;DHT22;16382;59.942;30.472;2023-04-25T04:01:31;12.80;99.90
29403;DHT22;16382;59.942;30.472;2023-04-25T04:04:00;12.80;99.90
29403;DHT22;16382;59.942;30.472;2023-04-25T04:06:29;12.90;99.90
29403;DHT22;16382;59.942;30.472;2023-04-25T04:09:03;13.00;99.90
29403;DHT22;16382;59.942;30.472;2023-04-25T04:11:37;13.10;99.90
29403;DHT22;16382;59.942;30.472;2023-04-25T04:14:05;13.10;99.90
29403;DHT22;16382;59.942;30.472;2023-04-25T04:16:34;13.10;99.90
29403;DHT22;16382;59.942;30.472;2023-04-25T04:19:03;13.20;99.90
29403;DHT22;16382;59.942;30.472;2023-04-25T04:21:31;13.30;99.90
29403;DHT22;16382;59.942;30.472;2023-04-25T04:24:03;13.30;99.90
29403;DHT22;16382;59.942;30.472;2023-04-25T04:26:42;13.40;99.90
29403;DHT22;16382;59.942;30.472;2023-04-25T04:29:32;13.50;99.90
29403;DHT22;16382;59.942;30.472;2023-04-25T04:32:24;13.60;99.90
29403;DHT22;16382;59.942;30.472;2023-04-25T04:35:01;13.60;99.90
29403;DHT22;16382;59.942;30.472;2023-04-25T04:37:31;13.70;99.90
29403;DHT22;16382;59.942;30.472;2023-04-25T04:40:05;13.80;99.90
29403;DHT22;16382;59.942;30.472;2023-04-25T04:42:46;13.80;99.90
29403;DHT22;16382;59.942;30.472;2023-04-25T04:45:46;13.90;99.90
29403;DHT22;16382;59.942;30.472;2023-04-25T04:48:34;13.90;99.90
29403;DHT22;16382;59.942;30.472;2023-04-25T04:51:23;14.00;99.90
29403;DHT22;16382;59.942;30.472;2023-04-25T04:53:54;14.00;99.90
29403;DHT22;16382;59.942;30.472;2023-04-25T04:56:48;14.00;99.90
29403;DHT22;16382;59.942;30.472;2023-04-25T04:59:42;14.10;99.90
29403;DHT22;16382;59.942;30.472;2023-04-25T05:02:44;14.30;99.90
29403;DHT22;16382;59.942;30.472;2023-04-25T05:05:53;14.40;99.90
29403;DHT22;16382;59.942;30.472;2023-04-25T05:08:28;14.50;99.90
29403;DHT22;16382;59.942;30.472;2023-04-25T05:11:24;14.60;99.90
29403;DHT22;16382;59.942;30.472;2023-04-25T05:14:24;14.60;99.90
29403;DHT22;16382;59.942;30.472;2023-04-25T05:17:06;14.80;99.80
29403;DHT22;16382;59.942;30.472;2023-04-25T05:19:51;14.80;99.30
29403;DHT22;16382;59.942;30.472;2023-04-25T05:22:45;14.90;99.00
29403;DHT22;16382;59.942;30.472;2023-04-25T05:25:19;15.00;98.10
29403;DHT22;16382;59.942;30.472;2023-04-25T05:28:06;15.00;97.40
29403;DHT22;16382;59.942;30.472;2023-04-25T05:30:57;15.20;97.40
29403;DHT22;16382;59.942;30.472;2023-04-25T05:33:41;15.30;96.30
29403;DHT22;16382;59.942;30.472;2023-04-25T05:36:09;15.40;96.20
29403;DHT22;16382;59.942;30.472;2023-04-25T05:38:38;15.50;95.30
29403;DHT22;16382;59.942;30.472;2023-04-25T05:41:46;15.60;94.60
29403;DHT22;16382;59.942;30.472;2023-04-25T05:44:44;15.70;94.00
29403;DHT22;16382;59.942;30.472;2023-04-25T05:47:36;15.90;93.30
29403;DHT22;16382;59.942;30.472;2023-04-25T05:50:09;16.10;92.10
29403;DHT22;16382;59.942;30.472;2023-04-25T05:52:50;16.20;92.00
29403;DHT22;16382;59.942;30.472;2023-04-25T05:55:30;16.40;91.00
29403;DHT22;16382;59.942;30.472;2023-04-25T05:58:26;16.50;90.50
29403;DHT22;16382;59.942;30.472;2023-04-25T06:00:55;17.00;89.00
29403;DHT22;16382;59.942;30.472;2023-04-25T06:03:23;17.30;87.10
29403;DHT22;16382;59.942;30.472;2023-04-25T06:05:51;17.40;85.40
29403;DHT22;16382;59.942;30.472;2023-04-25T06:08:19;17.60;83.80
29403;DHT22;16382;59.942;30.472;2023-04-25T06:10:47;17.80;82.90
29403;DHT22;16382;59.942;30.472;2023-04-25T06:13:18;17.80;81.10
29403;DHT22;16382;59.942;30.472;2023-04-25T06:15:48;17.80;81.00
29403;DHT22;16382;59.942;30.472;2023-04-25T06:18:16;17.80;81.60
29403;DHT22;16382;59.942;30.472;2023-04-25T06:20:44;17.90;80.60
29403;DHT22;16382;59.942;30.472;2023-04-25T06:23:12;18.00;80.30
29403;DHT22;16382;59.942;30.472;2023-04-25T06:25:48;18.00;79.20
29403;DHT22;16382;59.942;30.472;2023-04-25T06:28:16;18.00;79.00
29403;DHT22;16382;59.942;30.472;2023-04-25T06:30:44;18.00;78.80
29403;DHT22;16382;59.942;30.472;2023-04-25T06:33:18;18.10;78.70
29403;DHT22;16382;59.942;30.472;2023-04-25T06:35:46;18.40;77.50
29403;DHT22;16382;59.942;30.472;2023-04-25T06:38:17;18.60;77.10
29403;DHT22;16382;59.942;30.472;2023-04-25T06:40:50;18.70;76.40
29403;DHT22;16382;59.942;30.472;2023-04-25T06:43:18;18.90;76.30
29403;DHT22;16382;59.942;30.472;2023-04-25T06:46:04;19.10;74.80
29403;DHT22;16382;59.942;30.472;2023-04-25T06:48:39;19.40;74.90
29403;DHT22;16382;59.942;30.472;2023-04-25T06:51:07;20.20;74.20
29403;DHT22;16382;59.942;30.472;2023-04-25T06:53:36;21.10;70.50
29403;DHT22;16382;59.942;30.472;2023-04-25T06:56:06;22.00;66.90
29403;DHT22;16382;59.942;30.472;2023-04-25T06:58:54;23.00;62.80
29403;DHT22;16382;59.942;30.472;2023-04-25T07:01:34;23.80;59.10
29403;DHT22;16382;59.942;30.472;2023-04-25T07:04:33;24.40;57.00
29403;DHT22;16382;59.942;30.472;2023-04-25T07:07:01;25.10;55.20
29403;DHT22;16382;59.942;30.472;2023-04-25T07:09:52;25.40;53.40
29403;DHT22;16382;59.942;30.472;2023-04-25T07:14:51;26.40;49.80
29403;DHT22;16382;59.942;30.472;2023-04-25T07:17:18;26.70;49.30
29403;DHT22;16382;59.942;30.472;2023-04-25T07:19:50;26.70;49.10
29403;DHT22;16382;59.942;30.472;2023-04-25T07:22:20;26.80;48.40
29403;DHT22;16382;59.942;30.472;2023-04-25T07:24:49;26.90;48.60
29403;DHT22;16382;59.942;30.472;2023-04-25T07:27:19;27.30;48.00
29403;DHT22;16382;59.942;30.472;2023-04-25T07:30:10;27.60;47.60
29403;DHT22;16382;59.942;30.472;2023-04-25T07:32:39;28.40;46.20
29403;DHT22;16382;59.942;30.472;2023-04-25T07:35:09;28.60;45.90
29403;DHT22;16382;59.942;30.472;2023-04-25T07:37:36;29.00;44.60
29403;DHT22;16382;59.942;30.472;2023-04-25T07:40:14;29.30;44.50
29403;DHT22;16382;59.942;30.472;2023-04-25T07:42:46;29.60;42.70
29403;DHT22;16382;59.942;30.472;2023-04-25T07:45:21;29.80;41.80
29403;DHT22;16382;59.942;30.472;2023-04-25T07:47:49;29.70;41.30
29403;DHT22;16382;59.942;30.472;2023-04-25T07:50:18;29.50;41.30
29403;DHT22;16382;59.942;30.472;2023-04-25T07:52:46;29.70;40.80
29403;DHT22;16382;59.942;30.472;2023-04-25T07:55:23;29.80;40.10
29403;DHT22;16382;59.942;30.472;2023-04-25T07:58:03;29.50;40.30
29403;DHT22;16382;59.942;30.472;2023-04-25T08:00:35;29.70;40.30
29403;DHT22;16382;59.942;30.472;2023-04-25T08:03:21;29.90;40.10
29403;DHT22;16382;59.942;30.472;2023-04-25T08:05:51;30.30;40.00
29403;DHT22;16382;59.942;30.472;2023-04-25T08:08:19;30.60;38.50
29403;DHT22;16382;59.942;30.472;2023-04-25T08:10:47;30.50;38.30
29403;DHT22;16382;59.942;30.472;2023-04-25T08:13:16;30.50;38.30
29403;DHT22;16382;59.942;30.472;2023-04-25T08:15:44;30.50;38.10
29403;DHT22;16382;59.942;30.472;2023-04-25T08:18:12;30.30;37.90
29403;DHT22;16382;59.942;30.472;2023-04-25T08:20:41;30.30;38.30
29403;DHT22;16382;59.942;30.472;2023-04-25T08:23:12;30.30;38.10
29403;DHT22;16382;59.942;30.472;2023-04-25T08:25:51;30.20;38.60
29403;DHT22;16382;59.942;30.472;2023-04-25T08:28:23;30.00;37.80
29403;DHT22;16382;59.942;30.472;2023-04-25T08:30:51;30.30;38.00
29403;DHT22;16382;59.942;30.472;2023-04-25T08:33:20;30.80;37.40
29403;DHT22;16382;59.942;30.472;2023-04-25T08:36:01;31.10;35.80
29403;DHT22;16382;59.942;30.472;2023-04-25T08:38:32;31.00;36.00
29403;DHT22;16382;59.942;30.472;2023-04-25T08:41:02;31.00;35.70
29403;DHT22;16382;59.942;30.472;2023-04-25T08:43:31;31.30;34.90
29403;DHT22;16382;59.942;30.472;2023-04-25T08:46:00;31.50;33.80
29403;DHT22;16382;59.942;30.472;2023-04-25T08:48:51;31.70;33.20
29403;DHT22;16382;59.942;30.472;2023-04-25T08:51:22;31.60;33.30
29403;DHT22;16382;59.942;30.472;2023-04-25T08:56:20;32.60;32.90
29403;DHT22;16382;59.942;30.472;2023-04-25T08:58:49;32.80;33.30
29403;DHT22;16382;59.942;30.472;2023-04-25T09:01:17;32.60;33.80
29403;DHT22;16382;59.942;30.472;2023-04-25T09:03:51;32.40;34.70
29403;DHT22;16382;59.942;30.472;2023-04-25T09:06:19;32.60;33.60
29403;DHT22;16382;59.942;30.472;2023-04-25T09:08:51;32.80;34.30
29403;DHT22;16382;59.942;30.472;2023-04-25T09:11:19;33.30;33.20
29403;DHT22;16382;59.942;30.472;2023-04-25T09:13:50;33.70;32.40
29403;DHT22;16382;59.942;30.472;2023-04-25T09:17:04;33.70;32.20
29403;DHT22;16382;59.942;30.472;2023-04-25T09:19:42;33.80;32.10
29403;DHT22;16382;59.942;30.472;2023-04-25T09:22:33;33.60;33.00
29403;DHT22;16382;59.942;30.472;2023-04-25T09:25:07;32.50;33.10
29403;DHT22;16382;59.942;30.472;2023-04-25T09:27:36;30.30;33.80
29403;DHT22;16382;59.942;30.472;2023-04-25T09:30:29;28.90;35.60
29403;DHT22;16382;59.942;30.472;2023-04-25T09:33:07;29.50;34.80
29403;DHT22;16382;59.942;30.472;2023-04-25T09:35:37;28.60;35.30
29403;DHT22;16382;59.942;30.472;2023-04-25T09:38:10;27.50;36.70
29403;DHT22;16382;59.942;30.472;2023-04-25T09:40:56;26.50;38.00
29403;DHT22;16382;59.942;30.472;2023-04-25T09:43:35;25.50;38.50
29403;DHT22;16382;59.942;30.472;2023-04-25T09:46:07;25.00;39.40
29403;DHT22;16382;59.942;30.472;2023-04-25T09:48:49;24.60;40.00
29403;DHT22;16382;59.942;30.472;2023-04-25T09:51:31;24.50;40.30
29403;DHT22;16382;59.942;30.472;2023-04-25T09:54:00;25.10;41.20
29403;DHT22;16382;59.942;30.472;2023-04-25T09:56:36;26.50;39.40
29403;DHT22;16382;59.942;30.472;2023-04-25T09:59:07;27.50;38.20
29403;DHT22;16382;59.942;30.472;2023-04-25T10:01:43;28.70;37.70
29403;DHT22;16382;59.942;30.472;2023-04-25T10:04:25;29.60;37.10
29403;DHT22;16382;59.942;30.472;2023-04-25T10:07:11;30.60;35.70
29403;DHT22;16382;59.942;30.472;2023-04-25T10:09:47;31.40;34.50
29403;DHT22;16382;59.942;30.472;2023-04-25T10:12:18;32.20;35.00
29403;DHT22;16382;59.942;30.472;2023-04-25T10:14:48;32.60;34.10
29403;DHT22;16382;59.942;30.472;2023-04-25T10:17:22;32.60;33.80
29403;DHT22;16382;59.942;30.472;2023-04-25T10:19:51;32.70;32.40
29403;DHT22;16382;59.942;30.472;2023-04-25T10:22:31;32.40;32.80
29403;DHT22;16382;59.942;30.472;2023-04-25T10:25:00;32.40;33.20
29403;DHT22;16382;59.942;30.472;2023-04-25T10:27:34;32.80;32.50
29403;DHT22;16382;59.942;30.472;2023-04-25T10:30:02;33.00;32.40
29403;DHT22;16382;59.942;30.472;2023-04-25T10:32:33;32.20;32.30
29403;DHT22;16382;59.942;30.472;2023-04-25T10:35:15;31.40;33.10
29403;DHT22;16382;59.942;30.472;2023-04-25T10:38:02;29.80;33.90
29403;DHT22;16382;59.942;30.472;2023-04-25T10:40:31;28.90;35.20
29403;DHT22;16382;59.942;30.472;2023-04-25T10:46:24;31.30;33.90
29403;DHT22;16382;59.942;30.472;2023-04-25T10:48:54;31.50;33.60
29403;DHT22;16382;59.942;30.472;2023-04-25T10:51:23;30.20;33.90
29403;DHT22;16382;59.942;30.472;2023-04-25T10:53:58;29.00;34.60
29403;DHT22;16382;59.942;30.472;2023-04-25T10:56:28;28.10;35.90
29403;DHT22;16382;59.942;30.472;2023-04-25T10:59:10;27.80;36.50
29403;DHT22;16382;59.942;30.472;2023-04-25T11:01:43;28.40;35.80
29403;DHT22;16382;59.942;30.472;2023-04-25T11:04:21;28.50;35.50
29403;DHT22;16382;59.942;30.472;2023-04-25T11:07:05;27.70;35.30
29403;DHT22;16382;59.942;30.472;2023-04-25T11:09:40;27.30;36.20
29403;DHT22;16382;59.942;30.472;2023-04-25T11:12:15;28.50;35.60
29403;DHT22;16382;59.942;30.472;2023-04-25T11:14:47;29.80;34.80
29403;DHT22;16382;59.942;30.472;2023-04-25T11:17:16;31.20;33.70
29403;DHT22;16382;59.942;30.472;2023-04-25T11:19:48;32.20;33.20
29403;DHT22;16382;59.942;30.472;2023-04-25T11:22:16;32.80;31.60
29403;DHT22;16382;59.942;30.472;2023-04-25T11:24:47;31.60;32.00
29403;DHT22;16382;59.942;30.472;2023-04-25T11:27:19;30.30;33.10
29403;DHT22;16382;59.942;30.472;2023-04-25T11:29:49;30.50;33.70
29403;DHT22;16382;59.942;30.472;2023-04-25T11:32:33;30.40;33.50
29403;DHT22;16382;59.942;30.472;2023-04-25T11:35:01;29.40;34.00
29403;DHT22;16382;59.942;30.472;2023-04-25T11:37:29;29.20;34.80
29403;DHT22;16382;59.942;30.472;2023-04-25T11:39:57;30.50;33.90
29403;DHT22;16382;59.942;30.472;2023-04-25T11:42:27;30.30;33.10
29403;DHT22;16382;59.942;30.472;2023-04-25T11:44:56;29.10;34.10
29403;DHT22;16382;59.942;30.472;2023-04-25T11:47:33;29.10;34.80
29403;DHT22;16382;59.942;30.472;2023-04-25T11:50:07;30.90;33.60
29403;DHT22;16382;59.942;30.472;2023-04-25T11:52:37;30.90;32.90
29403;DHT22;16382;59.942;30.472;2023-04-25T11:55:08;29.40;33.70
29403;DHT22;16382;59.942;30.472;2023-04-25T11:57:38;28.20;35.40
29403;DHT22;16382;59.942;30.472;2023-04-25T12:00:11;27.20;35.40
29403;DHT22;16382;59.942;30.472;2023-04-25T12:02:43;26.40;36.40
29403;DHT22;16382;59.942;30.472;2023-04-25T12:05:13;26.20;37.20
29403;DHT22;16382;59.942;30.472;2023-04-25T12:07:43;27.10;36.80
29403;DHT22;16382;59.942;30.472;2023-04-25T12:10:15;27.20;36.60
29403;DHT22;16382;59.942;30.472;2023-04-25T12:12:45;26.90;36.10
29403;DHT22;16382;59.942;30.472;2023-04-25T12:15:16;26.30;36.60
29403;DHT22;16382;59.942;30.472;2023-04-25T12:17:47;26.00;37.80
29403;DHT22;16382;59.942;30.472;2023-04-25T12:20:28;25.90;37.60
29403;DHT22;16382;59.942;30.472;2023-04-25T12:22:58;25.50;37.90
29403;DHT22;16382;59.942;30.472;2023-04-25T12:25:37;25.10;38.20
29403;DHT22;16382;59.942;30.472;2023-04-25T12:28:13;24.70;38.40
29403;DHT22;16382;59.942;30.472;2023-04-25T12:30:58;24.70;39.00
29403;DHT22;16382;59.942;30.472;2023-04-25T12:33:30;25.10;39.10
29403;DHT22;16382;59.942;30.472;2023-04-25T12:36:04;25.60;38.10
29403;DHT22;16382;59.942;30.472;2023-04-25T12:38:37;25.40;38.50
29403;DHT22;16382;59.942;30.472;2023-04-25T12:41:06;25.20;38.90
29403;DHT22;16382;59.942;30.472;2023-04-25T12:43:34;24.80;39.90
29403;DHT22;16382;59.942;30.472;2023-04-25T12:46:03;24.40;39.00
29403;DHT22;16382;59.942;30.472;2023-04-25T12:48:31;24.00;39.50
29403;DHT22;16382;59.942;30.472;2023-04-25T12:50:59;23.70;40.30
29403;DHT22;16382;59.942;30.472;2023-04-25T12:53:29;23.60;40.10
29403;DHT22;16382;59.942;30.472;2023-04-25T12:55:57;23.40;40.30
29403;DHT22;16382;59.942;30.472;2023-04-25T12:58:25;23.30;40.70
29403;DHT22;16382;59.942;30.472;2023-04-25T13:00:52;23.30;41.00
29403;DHT22;16382;59.942;30.472;2023-04-25T13:03:21;23.20;40.50
29403;DHT22;16382;59.942;30.472;2023-04-25T13:05:48;23.10;41.80
29403;DHT22;16382;59.942;30.472;2023-04-25T13:08:18;23.20;40.60
29403;DHT22;16382;59.942;30.472;2023-04-25T13:10:47;23.30;41.00
29403;DHT22;16382;59.942;30.472;2023-04-25T13:13:15;23.60;41.00
29403;DHT22;16382;59.942;30.472;2023-04-25T13:15:43;24.60;39.50
29403;DHT22;16382;59.942;30.472;2023-04-25T13:18:15;25.70;39.10
29403;DHT22;16382;59.942;30.472;2023-04-25T13:20:44;27.00;36.90
29403;DHT22;16382;59.942;30.472;2023-04-25T13:23:18;26.60;37.20
29403;DHT22;16382;59.942;30.472;2023-04-25T13:25:46;25.80;37.50
29403;DHT22;16382;59.942;30.472;2023-04-25T13:28:14;25.20;38.20
29403;DHT22;16382;59.942;30.472;2023-04-25T13:30:42;24.90;38.80
29403;DHT22;16382;59.942;30.472;2023-04-25T13:33:10;24.70;38.80
29403;DHT22;16382;59.942;30.472;2023-04-25T13:35:38;24.50;39.40
29403;DHT22;16382;59.942;30.472;2023-04-25T13:38:11;24.20;39.30
29403;DHT22;16382;59.942;30.472;2023-04-25T13:40:38;24.00;40.20
29403;DHT22;16382;59.942;30.472;2023-04-25T13:43:08;23.90;40.20
29403;DHT22;16382;59.942;30.472;2023-04-25T13:45:41;23.70;40.50
29403;DHT22;16382;59.942;30.472;2023-04-25T13:48:11;23.70;40.50
29403;DHT22;16382;59.942;30.472;2023-04-25T13:50:38;23.50;40.50
29403;DHT22;16382;59.942;30.472;2023-04-25T13:53:06;23.50;40.60
29403;DHT22;16382;59.942;30.472;2023-04-25T13:55:42;23.50;40.30
29403;DHT22;16382;59.942;30.472;2023-04-25T13:58:10;23.80;40.50
29403;DHT22;16382;59.942;30.472;2023-04-25T14:00:42;23.80;39.80
29403;DHT22;16382;59.942;30.472;2023-04-25T14:03:14;23.80;40.00
29403;DHT22;16382;59.942;30.472;2023-04-25T14:05:43;23.60;40.00
29403;DHT22;16382;59.942;30.472;2023-04-25T14:08:11;23.40;40.50
29403;DHT22;16382;59.942;30.472;2023-04-25T14:10:39;23.20;40.70
29403;DHT22;16382;59.942;30.472;2023-04-25T14:13:08;22.90;41.20
29403;DHT22;16382;59.942;30.472;2023-04-25T14:15:35;22.80;41.50
29403;DHT22;16382;59.942;30.472;2023-04-25T14:18:03;22.60;41.80
29403;DHT22;16382;59.942;30.472;2023-04-25T14:20:31;22.60;41.40
29403;DHT22;16382;59.942;30.472;2023-04-25T14:22:59;22.60;41.60
29403;DHT22;16382;59.942;30.472;2023-04-25T14:25:27;22.70;41.70
29403;DHT22;16382;59.942;30.472;2023-04-25T14:27:56;23.50;40.90
29403;DHT22;16382;59.942;30.472;2023-04-25T14:30:28;23.70;40.50
29403;DHT22;16382;59.942;30.472;2023-04-25T14:32:57;23.60;41.00
29403;DHT22;16382;59.942;30.472;2023-04-25T14:35:25;23.50;41.30
29403;DHT22;16382;59.942;30.472;2023-04-25T14:37:53;23.40;41.00
29403;DHT22;16382;59.942;30.472;2023-04-25T14:40:21;23.20;41.40
29403;DHT22;16382;59.942;30.472;2023-04-25T14:42:49;23.10;41.20
29403;DHT22;16382;59.942;30.472;2023-04-25T14:45:17;22.80;41.60
29403;DHT22;16382;59.942;30.472;2023-04-25T14:47:46;22.70;41.80
29403;DHT22;16382;59.942;30.472;2023-04-25T14:50:13;22.50;42.30
29403;DHT22;16382;59.942;30.472;2023-04-25T14:52:41;22.50;42.60
29403;DHT22;16382;59.942;30.472;2023-04-25T14:55:09;22.50;42.50
29403;DHT22;16382;59.942;30.472;2023-04-25T14:57:36;22.40;42.40
29403;DHT22;16382;59.942;30.472;2023-04-25T15:00:06;22.40;42.60
29403;DHT22;16382;59.942;30.472;2023-04-25T15:02:36;22.30;43.00
29403;DHT22;16382;59.942;30.472;2023-04-25T15:05:08;22.20;42.80
29403;DHT22;16382;59.942;30.472;2023-04-25T15:07:36;22.20;43.00
29403;DHT22;16382;59.942;30.472;2023-04-25T15:10:06;22.20;42.70
29403;DHT22;16382;59.942;30.472;2023-04-25T15:12:39;22.00;43.00
29403;DHT22;16382;59.942;30.472;2023-04-25T15:15:08;21.80;43.20
29403;DHT22;16382;59.942;30.472;2023-04-25T15:17:38;21.70;43.40
29403;DHT22;16382;59.942;30.472;2023-04-25T15:20:09;21.50;43.80
29403;DHT22;16382;59.942;30.472;2023-04-25T15:22:38;21.40;43.60
29403;DHT22;16382;59.942;30.472;2023-04-25T15:25:09;21.40;43.80
29403;DHT22;16382;59.942;30.472;2023-04-25T15:27:39;21.20;43.80
29403;DHT22;16382;59.942;30.472;2023-04-25T15:30:12;21.10;44.00
29403;DHT22;16382;59.942;30.472;2023-04-25T15:32:41;21.00;44.20
29403;DHT22;16382;59.942;30.472;2023-04-25T15:35:11;21.00;44.70
29403;DHT22;16382;59.942;30.472;2023-04-25T15:37:41;21.10;44.60
29403;DHT22;16382;59.942;30.472;2023-04-25T15:40:13;21.10;44.50
29403;DHT22;16382;59.942;30.472;2023-04-25T15:42:43;21.00;44.80
29403;DHT22;16382;59.942;30.472;2023-04-25T15:45:14;21.10;45.00
29403;DHT22;16382;59.942;30.472;2023-04-25T15:47:43;21.00;44.30
29403;DHT22;16382;59.942;30.472;2023-04-25T15:50:13;21.00;44.60
29403;DHT22;16382;59.942;30.472;2023-04-25T15:52:41;21.00;44.50
29403;DHT22;16382;59.942;30.472;2023-04-25T15:55:09;20.90;44.30
29403;DHT22;16382;59.942;30.472;2023-04-25T15:57:37;21.00;44.60